Gardiner, Montana
Current Conditions -  °F | °C
As of 12:53 PM on Wednesday 28 Jan 2015 (Local Time) from KLVM Reporting Station
Overcast Overcast  
Wind Chill: 53°   Ceiling: 5500
Heat Index: 53°   Visibility: 10mi
Dew Point: 25°   Wind: 21mph
Humidity: 34%   Direction: 270°W
Pressure: 30.19"   Gusts: NA
Location:  45.03°N, 110.72°W
Report Text: KLVM 281953Z AUTO 27018KT 10SM OVC055 12/M04 A3019 RMK AO2 WSHFT 1913 SLP211 T01171039
Loading
Personal Weather Stations






























Interactive Weather Map New forecast layout! Learn more

10-Day Weather Forecast

Advertisements
Track Severe Weather on mobile